Dades meteomassalio
Diari Summary for Agost 6, 2017 Units:  English    Metric   Both
« Previous Day
Next Day »
Diari Semanal Mensual Anual Personalitzat
  Maxima: Minima: Mijana:
Temperatura: TemperatureC °F 19.2 °F 24.6 °F
Rosada: DewpointC °F 13.4 °F 15.6 °F
Humitat: Humidity % 38 % 58 %
Velocitat del vent: WindSpeedKMH mph 0.0 mph 12 mph
Racha vent: WindSpeedGustKMH mph - -
Vent:- - SSW
Pressio: PressurehPa in 1014.1 in -
Pluja: 0.0 in    
Historical Graphs
 
 
Tabular Data for Agost 6, 2017
Time Temperature Dew Point Pressure Wind Wind Speed Wind Gust Humidity Rainfall Rate (Hourly) solar Conditions
TemperatureC °F DewpointC °F PressurehPa in Calm     Humidity % HourlyPrecipMM in SolarRadiationWatts/m^2 W/m2 Conditions
00:04 24.3 °F 15.3 °F 1015.1 in WSW 5.6 mph 5.6 mph 57 % 0.0 in 0.0 W/m2 CLR
00:09 24.2 °F 15.2 °F 1015.5 in WNW 18.5 mph 18.5 mph 57 % 0.0 in 0.0 W/m2 CLR
00:14 24.1 °F 15.1 °F 1015.5 in WSW 13.0 mph 13.0 mph 57 % 0.0 in 0.0 W/m2 CLR
00:19 24.0 °F 14.9 °F 1015.5 in West 20.4 mph 20.4 mph 57 % 0.0 in 0.0 W/m2 CLR
00:24 23.8 °F 14.8 °F 1015.5 in WNW 31.5 mph 31.5 mph 57 % 0.0 in 0.0 W/m2 CLR
00:29 23.7 °F 14.9 °F 1015.5 in West 5.6 mph 5.6 mph 58 % 0.0 in 0.0 W/m2 CLR
00:34 23.6 °F 14.9 °F 1015.5 in West 18.5 mph 18.5 mph 58 % 0.0 in 0.0 W/m2 CLR
00:39 23.6 °F 14.8 °F 1015.5 in WSW 16.7 mph 16.7 mph 58 % 0.0 in 0.0 W/m2 CLR
00:44 23.4 °F 14.9 °F 1015.5 in WSW 22.2 mph 22.2 mph 59 % 0.0 in 0.0 W/m2 CLR
00:49 23.3 °F 14.8 °F 1015.5 in WNW 9.7 mph 9.7 mph 59 % 0.0 in 0.0 W/m2 CLR
00:54 23.1 °F 14.7 °F 1015.5 in WNW 9.3 mph 9.3 mph 59 % 0.0 in 0.0 W/m2 CLR
00:59 23.1 °F 14.6 °F 1015.5 in West 11.1 mph 11.1 mph 59 % 0.0 in 0.0 W/m2 CLR
01:04 22.9 °F 14.7 °F 1015.8 in WNW 18.5 mph 18.5 mph 60 % 0.0 in 0.0 W/m2 CLR
01:09 22.8 °F 14.6 °F 1015.8 in WNW 24.1 mph 24.1 mph 60 % 0.0 in 0.0 W/m2 CLR
01:14 22.7 °F 14.5 °F 1015.8 in West 20.9 mph 20.9 mph 60 % 0.0 in 0.0 W/m2 CLR
01:24 22.4 °F 14.3 °F 1015.8 in West 24.1 mph 24.1 mph 60 % 0.0 in 0.0 W/m2 CLR
01:29 22.4 °F 14.5 °F 1015.8 in West 18.5 mph 18.5 mph 61 % 0.0 in 0.0 W/m2 CLR
01:34 22.3 °F 14.4 °F 1015.8 in West 24.1 mph 24.1 mph 61 % 0.0 in 0.0 W/m2 CLR
01:39 22.3 °F 14.4 °F 1015.8 in WSW 20.4 mph 20.4 mph 61 % 0.0 in 0.0 W/m2 CLR
01:44 22.3 °F 14.4 °F 1015.8 in West 18.5 mph 18.5 mph 61 % 0.0 in 0.0 W/m2 CLR
01:49 22.2 °F 14.3 °F 1015.8 in WNW 18.5 mph 18.5 mph 61 % 0.0 in 0.0 W/m2 CLR
01:54 22.2 °F 14.3 °F 1015.8 in WNW 11.1 mph 11.1 mph 61 % 0.0 in 0.0 W/m2 CLR
01:59 22.1 °F 14.5 °F 1015.8 in WNW 18.5 mph 18.5 mph 62 % 0.0 in 0.0 W/m2 CLR
02:04 22.1 °F 14.4 °F 1015.8 in Calm     62 % 0.0 in 0.0 W/m2 CLR
02:09 22.0 °F 14.4 °F 1015.8 in West 5.6 mph 5.6 mph 62 % 0.0 in 0.0 W/m2 CLR
02:19 21.9 °F 14.3 °F 1015.5 in Calm     62 % 0.0 in 0.0 W/m2 CLR
02:24 21.8 °F 14.5 °F 1015.5 in NW 5.6 mph   63 % 0.0 in 0.0 W/m2 CLR
02:29 21.7 °F 14.4 °F 1015.5 in Calm     63 % 0.0 in 0.0 W/m2 CLR
02:34 21.7 °F 14.4 °F 1015.8 in WNW 5.6 mph   63 % 0.0 in 0.0 W/m2 CLR
02:39 21.6 °F 14.3 °F 1015.8 in West 11.1 mph 11.1 mph 63 % 0.0 in 0.0 W/m2 CLR
02:44 21.5 °F 14.2 °F 1015.8 in WNW 18.5 mph 18.5 mph 63 % 0.0 in 0.0 W/m2 CLR
02:49 21.4 °F 14.3 °F 1015.8 in West 16.7 mph 16.7 mph 64 % 0.0 in 0.0 W/m2 CLR
02:54 21.3 °F 14.2 °F 1015.8 in NW 16.1 mph 16.1 mph 64 % 0.0 in 0.0 W/m2 CLR
02:59 21.2 °F 14.1 °F 1015.8 in WNW 14.8 mph 14.8 mph 64 % 0.0 in 0.0 W/m2 CLR
03:04 21.1 °F 14.3 °F 1015.8 in Calm   1.0 mph 65 % 0.0 in 0.0 W/m2 CLR
03:09 21.1 °F 14.2 °F 1015.8 in WNW 13.0 mph 13.0 mph 65 % 0.0 in 0.0 W/m2 CLR
03:14 21.0 °F 14.2 °F 1015.8 in NW 13.0 mph 13.0 mph 65 % 0.0 in 0.0 W/m2 CLR
03:19 20.9 °F 14.1 °F 1015.8 in WNW 3.2 mph 3.2 mph 65 % 0.0 in 0.0 W/m2 CLR
03:29 20.8 °F 13.9 °F 1015.8 in WNW 5.6 mph   65 % 0.0 in 0.0 W/m2 CLR
03:34 20.7 °F 14.1 °F 1015.8 in West 5.6 mph 5.6 mph 66 % 0.0 in 0.0 W/m2 CLR
03:43 20.6 °F 14.0 °F 1015.8 in West 9.3 mph 9.3 mph 66 % 0.0 in 0.0 W/m2 CLR
03:48 20.4 °F 13.9 °F 1015.8 in West 9.3 mph 9.3 mph 66 % 0.0 in 0.0 W/m2 CLR
03:53 20.4 °F 13.8 °F 1015.8 in West 16.7 mph 16.7 mph 66 % 0.0 in 0.0 W/m2 CLR
03:58 20.3 °F 13.8 °F 1015.8 in West 9.3 mph 9.3 mph 66 % 0.0 in 0.0 W/m2 CLR
04:03 20.3 °F 13.7 °F 1016.1 in West 9.3 mph 9.3 mph 66 % 0.0 in 0.0 W/m2 CLR
04:08 20.3 °F 13.9 °F 1015.8 in WNW 13.0 mph 13.0 mph 67 % 0.0 in 0.0 W/m2 CLR
04:13 20.2 °F 13.8 °F 1015.8 in West 11.1 mph 11.1 mph 67 % 0.0 in 0.0 W/m2 CLR
04:18 20.2 °F 13.8 °F 1015.8 in West 9.3 mph 9.3 mph 67 % 0.0 in 0.0 W/m2 CLR
04:23 20.1 °F 13.8 °F 1016.1 in WNW 14.8 mph 14.8 mph 67 % 0.0 in 0.0 W/m2 CLR
04:28 20.1 °F 13.7 °F 1016.1 in WNW 14.5 mph 14.5 mph 67 % 0.0 in 0.0 W/m2 CLR
04:38 19.9 °F 13.6 °F 1016.1 in WNW 9.7 mph 9.7 mph 67 % 0.0 in 0.0 W/m2 CLR
04:43 19.9 °F 13.6 °F 1016.1 in WNW 8.0 mph 8.0 mph 67 % 0.0 in 0.0 W/m2 CLR
04:48 19.8 °F 13.8 °F 1016.1 in WNW 17.7 mph 17.7 mph 68 % 0.0 in 0.0 W/m2 CLR
04:53 19.8 °F 13.7 °F 1016.1 in WNW 16.7 mph 16.7 mph 68 % 0.0 in 0.0 W/m2 CLR
04:58 19.7 °F 13.7 °F 1016.1 in West 13.0 mph 13.0 mph 68 % 0.0 in 0.0 W/m2 CLR
05:03 19.7 °F 13.8 °F 1016.5 in West 5.6 mph 5.6 mph 69 % 0.0 in 0.0 W/m2 CLR
05:08 19.6 °F 13.8 °F 1016.1 in Calm     69 % 0.0 in 0.0 W/m2 CLR
05:13 19.6 °F 13.8 °F 1016.5 in WSW 5.6 mph   69 % 0.0 in 0.0 W/m2 CLR
05:18 19.6 °F 13.7 °F 1016.5 in WSW 5.6 mph 5.6 mph 69 % 0.0 in 0.0 W/m2 CLR
05:23 19.6 °F 13.7 °F 1016.5 in WNW 14.8 mph 14.8 mph 69 % 0.0 in 0.0 W/m2 CLR
05:28 19.5 °F 13.7 °F 1016.5 in West 7.4 mph 7.4 mph 69 % 0.0 in 0.0 W/m2 CLR
05:33 19.4 °F 13.6 °F 1016.5 in West 11.1 mph 11.1 mph 69 % 0.0 in 0.0 W/m2 CLR
05:38 19.4 °F 13.6 °F 1016.5 in WSW 9.3 mph 9.3 mph 69 % 0.0 in 0.0 W/m2 CLR
05:43 19.4 °F 13.6 °F 1016.5 in SW 9.3 mph 9.3 mph 69 % 0.0 in 0.0 W/m2 CLR
05:48 19.4 °F 13.6 °F 1016.5 in WSW 5.6 mph 5.6 mph 69 % 0.0 in 0.0 W/m2 CLR
05:53 19.4 °F 13.6 °F 1016.5 in WSW 4.8 mph 4.8 mph 69 % 0.0 in 0.0 W/m2 CLR
05:58 19.3 °F 13.5 °F 1016.5 in Calm     69 % 0.0 in 0.0 W/m2 CLR
06:03 19.3 °F 13.7 °F 1016.5 in WSW 5.6 mph   70 % 0.0 in 0.0 W/m2 CLR
06:08 19.3 °F 13.7 °F 1016.8 in Calm     70 % 0.0 in 0.0 W/m2 CLR
06:13 19.3 °F 13.7 °F 1016.8 in Calm     70 % 0.0 in 0.0 W/m2 CLR
06:18 19.2 °F 13.6 °F 1016.8 in West 7.4 mph 7.4 mph 70 % 0.0 in 0.0 W/m2 CLR
06:23 19.2 °F 13.6 °F 1016.8 in West 5.6 mph 5.6 mph 70 % 0.0 in 0.0 W/m2 CLR
06:28 19.3 °F 13.7 °F 1016.8 in West 8.0 mph 8.0 mph 70 % 0.0 in 0.0 W/m2 CLR
06:33 19.3 °F 13.7 °F 1016.8 in WNW 11.3 mph 11.3 mph 70 % 0.0 in 0.0 W/m2 CLR
06:38 19.3 °F 13.7 °F 1017.2 in WNW 13.0 mph 13.0 mph 70 % 0.0 in 0.0 W/m2 CLR
06:43 19.3 °F 13.7 °F 1017.2 in West 4.8 mph 4.8 mph 70 % 0.0 in 0.0 W/m2 CLR
06:48 19.3 °F 13.7 °F 1017.2 in West 7.4 mph 7.4 mph 70 % 0.0 in 0.0 W/m2 CLR
06:53 19.3 °F 13.7 °F 1017.2 in West 9.7 mph 9.7 mph 70 % 0.0 in 0.0 W/m2 CLR
06:58 19.3 °F 13.7 °F 1017.2 in WSW 18.5 mph 18.5 mph 70 % 0.0 in 0.0 W/m2 CLR
07:03 19.3 °F 13.7 °F 1017.5 in West 9.3 mph 9.3 mph 70 % 0.0 in 0.0 W/m2 OVC
07:08 19.2 °F 13.6 °F 1017.5 in West 9.3 mph 9.3 mph 70 % 0.0 in 5.0 W/m2 OVC
07:13 19.2 °F 13.6 °F 1017.5 in West 9.7 mph 9.7 mph 70 % 0.0 in 7.0 W/m2 BKN
07:18 19.2 °F 13.6 °F 1017.5 in WSW 11.3 mph 11.3 mph 70 % 0.0 in 12.0 W/m2 BKN
07:23 19.2 °F 13.8 °F 1017.5 in WNW 24.1 mph 24.1 mph 71 % 0.0 in 18.0 W/m2 BKN
07:28 19.2 °F 13.8 °F 1017.5 in WNW 16.7 mph 16.7 mph 71 % 0.0 in 21.0 W/m2 BKN
07:33 19.2 °F 13.8 °F 1017.5 in WSW 14.5 mph 14.5 mph 71 % 0.0 in 32.0 W/m2 BKN
07:38 19.2 °F 13.8 °F 1017.5 in West 16.7 mph 16.7 mph 71 % 0.0 in 44.0 W/m2 BKN
07:43 19.2 °F 13.8 °F 1017.8 in West 18.5 mph 18.5 mph 71 % 0.0 in 53.0 W/m2 SCT
07:48 19.3 °F 13.9 °F 1017.8 in WNW 7.4 mph 7.4 mph 71 % 0.0 in 53.0 W/m2 SCT
07:53 19.3 °F 13.7 °F 1017.8 in West 9.3 mph 9.3 mph 70 % 0.0 in 72.0 W/m2 FEW
07:58 19.4 °F 13.8 °F 1017.8 in West 16.7 mph 16.7 mph 70 % 0.0 in 83.0 W/m2 FEW
08:03 19.4 °F 13.8 °F 1017.8 in West 11.1 mph 11.1 mph 70 % 0.0 in 90.0 W/m2 FEW
08:08 19.4 °F 13.8 °F 1017.8 in WNW 13.0 mph 13.0 mph 70 % 0.0 in 79.0 W/m2 FEW
08:13 19.4 °F 13.6 °F 1018.2 in West 24.1 mph 24.1 mph 69 % 0.0 in 77.0 W/m2 FEW
08:18 19.3 °F 13.5 °F 1018.2 in WNW 22.2 mph 22.2 mph 69 % 0.0 in 44.0 W/m2 FEW
08:23 19.3 °F 13.7 °F 1018.2 in WNW 14.8 mph 14.8 mph 70 % 0.0 in 69.0 W/m2 FEW
08:28 19.3 °F 13.7 °F 1018.2 in West 16.7 mph 16.7 mph 70 % 0.0 in 134.0 W/m2 FEW
08:33 19.4 °F 13.8 °F 1018.2 in WNW 24.1 mph 24.1 mph 70 % 0.0 in 62.0 W/m2 FEW
08:38 19.4 °F 13.6 °F 1018.2 in West 18.5 mph 18.5 mph 69 % 0.0 in 62.0 W/m2 FEW
08:43 19.4 °F 13.6 °F 1018.5 in NW 16.7 mph 16.7 mph 69 % 0.0 in 60.0 W/m2 SCT
08:48 19.4 °F 13.6 °F 1018.5 in West 18.5 mph 18.5 mph 69 % 0.0 in 65.0 W/m2 SCT
08:53 19.5 °F 13.7 °F 1018.5 in WNW 18.5 mph 18.5 mph 69 % 0.0 in 123.0 W/m2 FEW
08:58 19.6 °F 13.5 °F 1018.5 in West 27.8 mph 27.8 mph 68 % 0.0 in 153.0 W/m2 CLR
09:03 19.6 °F 13.6 °F 1018.5 in West 18.5 mph 18.5 mph 68 % 0.0 in 155.0 W/m2 CLR
09:08 19.8 °F 13.7 °F 1018.5 in West 13.0 mph 13.0 mph 68 % 0.0 in 185.0 W/m2 CLR
09:13 19.9 °F 13.6 °F 1018.5 in WNW 20.9 mph 20.9 mph 67 % 0.0 in 285.0 W/m2 CLR
09:18 20.0 °F 13.7 °F 1018.5 in West 18.5 mph 18.5 mph 67 % 0.0 in 199.0 W/m2 CLR
09:23 20.0 °F 13.7 °F 1018.5 in WNW 16.7 mph 16.7 mph 67 % 0.0 in 216.0 W/m2 CLR
09:28 20.2 °F 13.9 °F 1018.5 in WNW 18.5 mph 18.5 mph 67 % 0.0 in 213.0 W/m2 CLR
09:33 20.3 °F 13.6 °F 1018.5 in WNW 18.5 mph 18.5 mph 65 % 0.0 in 223.0 W/m2 CLR
09:38 20.4 °F 13.6 °F 1018.8 in West 20.4 mph 20.4 mph 65 % 0.0 in 236.0 W/m2 CLR
09:43 20.4 °F 13.9 °F 1018.8 in West 14.8 mph 14.8 mph 66 % 0.0 in 225.0 W/m2 CLR
09:48 20.6 °F 13.7 °F 1018.8 in West 22.2 mph 22.2 mph 65 % 0.0 in 232.0 W/m2 CLR
09:53 20.6 °F 13.7 °F 1018.8 in WNW 20.4 mph 20.4 mph 65 % 0.0 in 237.0 W/m2 CLR
09:58 20.6 °F 13.8 °F 1018.8 in West 9.3 mph 9.3 mph 65 % 0.0 in 257.0 W/m2 CLR
10:03 20.8 °F 13.7 °F 1018.8 in NNW 12.9 mph 12.9 mph 64 % 0.0 in 251.0 W/m2 CLR
10:08 21.1 °F 13.7 °F 1018.8 in WNW 16.1 mph 16.1 mph 63 % 0.0 in 388.0 W/m2 CLR
10:13 21.3 °F 13.7 °F 1018.8 in West 5.6 mph   62 % 0.0 in 309.0 W/m2 CLR
10:18 21.5 °F 13.9 °F 1018.8 in WNW 12.9 mph 12.9 mph 62 % 0.0 in 253.0 W/m2 CLR
10:23 21.4 °F 13.6 °F 1018.8 in Calm     61 % 0.0 in 272.0 W/m2 CLR
10:28 21.4 °F 13.6 °F 1018.8 in NW 14.8 mph 14.8 mph 61 % 0.0 in 308.0 W/m2 CLR
10:33 21.4 °F 13.6 °F 1018.8 in WSW 13.0 mph 13.0 mph 61 % 0.0 in 325.0 W/m2 CLR
10:38 21.4 °F 13.8 °F 1018.8 in WSW 7.4 mph 7.4 mph 62 % 0.0 in 332.0 W/m2 CLR
10:43 21.7 °F 13.8 °F 1018.8 in Calm     61 % 0.0 in 322.0 W/m2 CLR
10:48 22.0 °F 13.9 °F 1018.8 in West 9.3 mph 9.3 mph 60 % 0.0 in 359.0 W/m2 CLR
10:53 22.2 °F 13.8 °F 1018.8 in WNW 11.3 mph 11.3 mph 59 % 0.0 in 350.0 W/m2 CLR
10:58 22.3 °F 13.6 °F 1018.8 in WSW 13.0 mph   58 % 0.0 in 313.0 W/m2 CLR
11:03 22.3 °F 13.7 °F 1018.8 in West 14.8 mph 14.8 mph 58 % 0.0 in 425.0 W/m2 CLR
11:08 22.5 °F 13.6 °F 1018.8 in NW 13.0 mph 13.0 mph 57 % 0.0 in 543.0 W/m2 CLR
11:13 22.6 °F 13.4 °F 1018.8 in WNW 7.4 mph 7.4 mph 56 % 0.0 in 459.0 W/m2 CLR
11:18 22.9 °F 13.7 °F 1018.8 in West 13.0 mph 13.0 mph 56 % 0.0 in 835.0 W/m2 CLR
11:23 22.9 °F 13.7 °F 1018.8 in NW 13.0 mph 13.0 mph 56 % 0.0 in 745.0 W/m2 CLR
11:28 23.0 °F 13.7 °F 1018.8 in SW 9.7 mph 10.5 mph 56 % 0.0 in 348.0 W/m2 CLR
11:33 23.2 °F 13.9 °F 1018.8 in WNW 16.7 mph 16.7 mph 56 % 0.0 in 833.0 W/m2 CLR
11:38 23.3 °F 13.8 °F 1018.8 in WSW 14.8 mph 14.8 mph 55 % 0.0 in 642.0 W/m2 CLR
11:43 23.3 °F 13.7 °F 1018.8 in WSW 16.7 mph 16.7 mph 55 % 0.0 in 802.0 W/m2 CLR
11:48 23.4 °F 13.8 °F 1018.8 in WNW 18.5 mph 18.5 mph 55 % 0.0 in 830.0 W/m2 CLR
11:53 23.7 °F 13.8 °F 1018.5 in West 11.1 mph 11.1 mph 54 % 0.0 in 772.0 W/m2 CLR
11:58 24.0 °F 14.1 °F 1018.5 in NNW 14.8 mph 14.8 mph 54 % 0.0 in 745.0 W/m2 CLR
12:03 24.3 °F 13.8 °F 1018.5 in West 16.7 mph 16.7 mph 52 % 0.0 in 758.0 W/m2 CLR
12:08 24.2 °F 13.7 °F 1018.5 in WNW 13.0 mph 13.0 mph 52 % 0.0 in 768.0 W/m2 CLR
12:13 24.2 °F 13.4 °F 1018.5 in WNW 22.2 mph 22.2 mph 51 % 0.0 in 770.0 W/m2 CLR
12:18 24.2 °F 13.4 °F 1018.5 in West 18.5 mph 18.5 mph 51 % 0.0 in 779.0 W/m2 CLR
12:23 24.2 °F 13.4 °F 1018.5 in West 16.7 mph 16.7 mph 51 % 0.0 in 788.0 W/m2 CLR
12:28 24.3 °F 13.5 °F 1018.5 in NW 13.0 mph 13.0 mph 51 % 0.0 in 782.0 W/m2 CLR
12:33 24.7 °F 13.9 °F 1018.2 in WNW 3.7 mph 3.7 mph 51 % 0.0 in 793.0 W/m2 CLR
12:38 25.1 °F 13.9 °F 1018.2 in NNW 11.1 mph 11.1 mph 50 % 0.0 in 807.0 W/m2 CLR
12:43 25.5 °F 14.3 °F 1018.2 in NNW 1.9 mph 1.9 mph 50 % 0.0 in 809.0 W/m2 CLR
12:48 25.9 °F 14.1 °F 1018.2 in NW 13.0 mph 13.0 mph 48 % 0.0 in 821.0 W/m2 CLR
12:53 26.2 °F 14.3 °F 1018.2 in North 1.9 mph   48 % 0.0 in 821.0 W/m2 CLR
12:58 26.4 °F 14.5 °F 1017.8 in Calm     48 % 0.0 in 826.0 W/m2 CLR
13:03 26.6 °F 14.3 °F 1017.8 in Calm     47 % 0.0 in 835.0 W/m2 CLR
13:08 26.6 °F 14.0 °F 1017.8 in North 7.4 mph 7.4 mph 46 % 0.0 in 849.0 W/m2 CLR
13:13 26.6 °F 14.7 °F 1017.8 in West 7.4 mph 7.4 mph 48 % 0.0 in 851.0 W/m2 CLR
13:18 26.4 °F 14.6 °F 1017.5 in WNW 7.4 mph   48 % 0.0 in 846.0 W/m2 CLR
13:23 26.8 °F 14.9 °F 1017.8 in West 6.4 mph 6.4 mph 48 % 0.0 in 856.0 W/m2 CLR
13:28 26.9 °F 14.6 °F 1017.5 in West 9.3 mph 9.3 mph 47 % 0.0 in 861.0 W/m2 CLR
13:33 26.8 °F 14.5 °F 1017.5 in SSW 1.9 mph   47 % 0.0 in 868.0 W/m2 CLR
13:38 27.1 °F 14.2 °F 1017.5 in Calm     45 % 0.0 in 865.0 W/m2 CLR
13:43 27.3 °F 14.3 °F 1017.5 in North 13.0 mph 13.0 mph 45 % 0.0 in 860.0 W/m2 CLR
13:48 27.7 °F 15.0 °F 1017.2 in Calm     46 % 0.0 in 879.0 W/m2 CLR
13:53 28.1 °F 14.7 °F 1017.2 in WNW 5.6 mph 5.6 mph 44 % 0.0 in 882.0 W/m2 CLR
13:58 28.3 °F 14.8 °F 1017.2 in Calm     44 % 0.0 in 877.0 W/m2 CLR
14:03 28.6 °F 14.8 °F 1017.2 in Calm     43 % 0.0 in 877.0 W/m2 CLR
14:08 28.6 °F 14.8 °F 1016.8 in NE 7.4 mph 7.4 mph 43 % 0.0 in 879.0 W/m2 CLR
14:13 28.6 °F 14.8 °F 1016.8 in NNE 5.6 mph   43 % 0.0 in 888.0 W/m2 CLR
14:18 28.8 °F 14.6 °F 1016.8 in NNW 7.4 mph 7.4 mph 42 % 0.0 in 886.0 W/m2 CLR
14:23 28.6 °F 14.4 °F 1016.8 in Calm     42 % 0.0 in 888.0 W/m2 CLR
14:28 28.6 °F 14.8 °F 1016.8 in NE 6.4 mph 6.4 mph 43 % 0.0 in 875.0 W/m2 CLR
14:33 28.8 °F 14.6 °F 1016.8 in Calm   1.9 mph 42 % 0.0 in 874.0 W/m2 CLR
14:38 28.9 °F 14.7 °F 1016.8 in North 1.9 mph 1.9 mph 42 % 0.0 in 874.0 W/m2 CLR
14:43 28.7 °F 14.9 °F 1016.5 in NNW 5.6 mph   43 % 0.0 in 853.0 W/m2 CLR
14:48 28.8 °F 15.0 °F 1016.5 in Calm     43 % 0.0 in 863.0 W/m2 CLR
14:53 29.1 °F 15.2 °F 1016.5 in Calm     43 % 0.0 in 863.0 W/m2 CLR
14:58 29.7 °F 15.1 °F 1016.5 in East 6.4 mph 6.4 mph 41 % 0.0 in 867.0 W/m2 CLR
15:03 29.5 °F 15.2 °F 1016.5 in Calm   0.8 mph 42 % 0.0 in 868.0 W/m2 CLR
15:08 29.7 °F 15.4 °F 1016.1 in ENE 5.6 mph   42 % 0.0 in 858.0 W/m2 CLR
15:13 30.0 °F 15.3 °F 1016.1 in Calm     41 % 0.0 in 867.0 W/m2 CLR
15:18 30.0 °F 14.9 °F 1016.1 in ENE 13.0 mph 13.0 mph 40 % 0.0 in 856.0 W/m2 CLR
15:23 29.9 °F 14.8 °F 1016.1 in NE 16.1 mph 16.1 mph 40 % 0.0 in 842.0 W/m2 CLR
15:28 29.8 °F 14.7 °F 1016.1 in ENE 11.3 mph 11.3 mph 40 % 0.0 in 812.0 W/m2 CLR
15:33 29.8 °F 15.2 °F 1016.1 in NE 5.6 mph   41 % 0.0 in 837.0 W/m2 CLR
15:38 30.2 °F 15.5 °F 1015.8 in NE 9.7 mph 9.7 mph 41 % 0.0 in 803.0 W/m2 CLR
15:43 30.3 °F 15.2 °F 1015.8 in North 1.9 mph   40 % 0.0 in 819.0 W/m2 CLR
15:45 30.2 °F 15.1 °F 1015.8 in Calm     40 % 0.0 in 823.0 W/m2 CLR
15:50 30.4 °F 15.3 °F 1015.8 in North 14.8 mph 14.8 mph 40 % 0.0 in 809.0 W/m2 CLR
15:54 30.6 °F 15.4 °F 1015.8 in Calm     40 % 0.0 in 803.0 W/m2 CLR
15:59 30.8 °F 15.6 °F 1015.8 in ENE 6.4 mph 6.4 mph 40 % 0.0 in 793.0 W/m2 CLR
16:04 31.0 °F 15.4 °F 1015.5 in NE 9.3 mph 9.3 mph 39 % 0.0 in 777.0 W/m2 CLR
16:09 31.2 °F 15.6 °F 1015.5 in NE 11.1 mph 11.1 mph 39 % 0.0 in 772.0 W/m2 CLR
16:14 31.2 °F 15.6 °F 1015.5 in NE 1.6 mph 1.6 mph 39 % 0.0 in 758.0 W/m2 CLR
16:19 31.4 °F 15.8 °F 1015.5 in Calm     39 % 0.0 in 742.0 W/m2 CLR
16:24 31.5 °F 15.4 °F 1015.5 in East 11.1 mph 11.1 mph 38 % 0.0 in 661.0 W/m2 CLR
16:29 31.0 °F 15.4 °F 1015.5 in NNE 14.8 mph 14.8 mph 39 % 0.0 in 745.0 W/m2 CLR
16:34 31.1 °F 15.9 °F 1015.1 in ENE 9.7 mph 9.7 mph 40 % 0.0 in 733.0 W/m2 CLR
16:39 31.5 °F 15.9 °F 1015.1 in NE 5.6 mph 5.6 mph 39 % 0.0 in 724.0 W/m2 CLR
16:44 31.7 °F 16.0 °F 1015.1 in NE 13.0 mph 13.0 mph 39 % 0.0 in 729.0 W/m2 CLR
16:49 31.7 °F 16.1 °F 1015.1 in ENE 13.0 mph 13.0 mph 39 % 0.0 in 700.0 W/m2 CLR
16:54 31.7 °F 16.1 °F 1014.8 in NE 13.0 mph 13.0 mph 39 % 0.0 in 693.0 W/m2 CLR
16:55 31.7 °F 16.1 °F 1014.8 in NE 13.0 mph 13.0 mph 39 % 0.0 in 693.0 W/m2 CLR
17:00 32.0 °F 16.3 °F 1014.8 in ENE 18.5 mph 18.5 mph 39 % 0.0 in 677.0 W/m2 CLR
17:05 31.9 °F 16.7 °F 1014.8 in ESE 20.4 mph 20.4 mph 40 % 0.0 in 654.0 W/m2 CLR
17:10 31.7 °F 16.4 °F 1014.4 in NE 11.1 mph 11.1 mph 40 % 0.0 in 659.0 W/m2 CLR
17:15 31.7 °F 16.8 °F 1014.4 in ENE 11.1 mph 11.1 mph 41 % 0.0 in 647.0 W/m2 CLR
17:20 32.2 °F 17.6 °F 1014.4 in NNE 13.0 mph 13.0 mph 42 % 0.0 in 650.0 W/m2 CLR
17:30 32.4 °F 17.9 °F 1014.4 in NNE 1.9 mph   42 % 0.0 in 610.0 W/m2 CLR
17:35 32.6 °F 18.1 °F 1014.4 in Calm     42 % 0.0 in 657.0 W/m2 CLR
17:40 32.7 °F 18.4 °F 1014.4 in East 13.0 mph 13.0 mph 43 % 0.0 in 443.0 W/m2 CLR
17:45 32.4 °F 18.9 °F 1014.4 in Calm     45 % 0.0 in 513.0 W/m2 CLR
17:50 32.1 °F 19.7 °F 1014.1 in East 18.5 mph 18.5 mph 48 % 0.0 in 197.0 W/m2 CLR
17:55 31.6 °F 18.9 °F 1014.4 in SE 14.8 mph 14.8 mph 47 % 0.0 in 193.0 W/m2 CLR
18:00 31.3 °F 19.9 °F 1014.1 in SE 20.9 mph 20.9 mph 51 % 0.0 in 160.0 W/m2 CLR
18:05 30.8 °F 19.8 °F 1014.1 in ESE 18.5 mph 18.5 mph 52 % 0.0 in 146.0 W/m2 CLR
18:10 30.6 °F 20.2 °F 1014.1 in East 18.5 mph 18.5 mph 54 % 0.0 in 374.0 W/m2 CLR
18:15 30.8 °F 20.4 °F 1014.1 in ESE 16.7 mph 16.7 mph 54 % 0.0 in 490.0 W/m2 CLR
18:20 30.9 °F 20.2 °F 1014.1 in ESE 20.4 mph 20.4 mph 53 % 0.0 in 432.0 W/m2 CLR
18:25 30.8 °F 20.2 °F 1014.1 in SSE 18.5 mph 18.5 mph 53 % 0.0 in 455.0 W/m2 CLR
18:30 30.7 °F 20.1 °F 1014.1 in ESE 22.2 mph 22.2 mph 53 % 0.0 in 443.0 W/m2 CLR
18:35 30.4 °F 20.1 °F 1014.1 in ESE 29.6 mph 29.6 mph 54 % 0.0 in 292.0 W/m2 CLR
18:40 30.1 °F 20.3 °F 1014.1 in East 20.9 mph 20.9 mph 56 % 0.0 in 97.0 W/m2 CLR
18:45 29.8 °F 20.1 °F 1014.1 in SE 29.6 mph 29.6 mph 56 % 0.0 in 132.0 W/m2 CLR
18:50 29.6 °F 20.2 °F 1014.1 in SE 24.1 mph 24.1 mph 57 % 0.0 in 162.0 W/m2 CLR
18:55 29.8 °F 20.1 °F 1014.1 in ESE 18.5 mph 18.5 mph 56 % 0.0 in 381.0 W/m2 CLR
19:00 29.9 °F 19.9 °F 1014.1 in SSE 24.1 mph 24.1 mph 55 % 0.0 in 350.0 W/m2 CLR
19:10 29.6 °F 19.6 °F 1014.1 in ESE 20.4 mph 20.4 mph 55 % 0.0 in 278.0 W/m2 CLR
19:15 29.5 °F 19.5 °F 1014.1 in SE 25.9 mph 25.9 mph 55 % 0.0 in 246.0 W/m2 CLR
19:20 29.4 °F 19.4 °F 1014.1 in East 24.1 mph 24.1 mph 55 % 0.0 in 239.0 W/m2 CLR
19:25 29.4 °F 19.1 °F 1014.1 in ESE 22.2 mph 22.2 mph 54 % 0.0 in 214.0 W/m2 CLR
19:30 29.2 °F 19.2 °F 1014.1 in SE 27.8 mph 27.8 mph 55 % 0.0 in 213.0 W/m2 CLR
19:35 29.1 °F 19.1 °F 1014.1 in SE 22.2 mph 22.2 mph 55 % 0.0 in 200.0 W/m2 CLR
19:40 29.1 °F 19.2 °F 1014.1 in SE 22.2 mph 22.2 mph 55 % 0.0 in 178.0 W/m2 CLR
19:45 29.1 °F 19.2 °F 1014.1 in SSE 20.4 mph 20.4 mph 55 % 0.0 in 163.0 W/m2 CLR
19:50 29.2 °F 19.2 °F 1014.1 in ESE 18.5 mph 18.5 mph 55 % 0.0 in 149.0 W/m2 CLR
19:55 28.9 °F 19.0 °F 1014.1 in SE 27.8 mph 27.8 mph 55 % 0.0 in 137.0 W/m2 CLR
20:00 28.8 °F 19.2 °F 1014.1 in SE 20.4 mph 20.4 mph 56 % 0.0 in 116.0 W/m2 CLR
20:05 28.8 °F 19.1 °F 1014.1 in SE 25.9 mph 25.9 mph 56 % 0.0 in 100.0 W/m2 CLR
20:10 28.7 °F 19.1 °F 1014.1 in ESE 18.5 mph 18.5 mph 56 % 0.0 in 86.0 W/m2 CLR
20:15 28.8 °F 19.1 °F 1014.1 in ESE 18.5 mph 18.5 mph 56 % 0.0 in 70.0 W/m2 FEW
20:20 28.7 °F 19.3 °F 1014.1 in SE 20.4 mph 20.4 mph 57 % 0.0 in 56.0 W/m2 SCT
20:25 28.6 °F 19.2 °F 1014.1 in SSE 25.9 mph 25.9 mph 57 % 0.0 in 46.0 W/m2 SCT
20:30 28.3 °F 19.0 °F 1014.1 in SE 20.4 mph 20.4 mph 57 % 0.0 in 37.0 W/m2 BKN
20:35 28.2 °F 19.2 °F 1014.1 in ESE 22.2 mph 22.2 mph 58 % 0.0 in 26.0 W/m2 BKN
20:40 28.1 °F 19.1 °F 1014.1 in SSE 16.7 mph 16.7 mph 58 % 0.0 in 19.0 W/m2 BKN
20:45 28.0 °F 18.9 °F 1014.1 in South 16.7 mph 16.7 mph 58 % 0.0 in 16.0 W/m2 BKN
20:50 27.9 °F 19.2 °F 1014.1 in SSE 13.0 mph 13.0 mph 59 % 0.0 in 14.0 W/m2 BKN
20:55 27.8 °F 19.1 °F 1014.1 in SSE 9.7 mph 9.7 mph 59 % 0.0 in 12.0 W/m2 BKN
21:00 27.7 °F 19.2 °F 1014.4 in SE 24.1 mph 24.1 mph 60 % 0.0 in 9.0 W/m2 BKN
21:05 27.6 °F 19.1 °F 1014.1 in SE 14.8 mph 14.8 mph 60 % 0.0 in 5.0 W/m2 BKN
21:10 27.5 °F 19.1 °F 1014.4 in SSE 20.4 mph 20.4 mph 60 % 0.0 in 0.0 W/m2 OVC
21:15 27.4 °F 19.3 °F 1014.4 in SSE 12.9 mph 12.9 mph 61 % 0.0 in 0.0 W/m2 OVC
21:20 27.3 °F 19.2 °F 1014.4 in SE 14.8 mph 14.8 mph 61 % 0.0 in 0.0 W/m2 OVC
21:21 27.3 °F 19.1 °F 1014.4 in SE 14.8 mph 14.8 mph 61 % 0.0 in 0.0 W/m2 CLR
21:26 27.2 °F 19.3 °F 1014.4 in SSE 18.5 mph 18.5 mph 62 % 0.0 in 0.0 W/m2 CLR
21:31 27.0 °F 19.3 °F 1014.4 in SSE 16.7 mph 16.7 mph 63 % 0.0 in 0.0 W/m2 CLR
21:36 26.9 °F 19.2 °F 1014.4 in SSE 14.8 mph 14.8 mph 63 % 0.0 in 0.0 W/m2 CLR
21:41 26.8 °F 19.2 °F 1014.4 in SE 11.1 mph 11.1 mph 63 % 0.0 in 0.0 W/m2 CLR
21:46 26.7 °F 19.3 °F 1014.4 in SE 18.5 mph 18.5 mph 64 % 0.0 in 0.0 W/m2 CLR
21:51 26.6 °F 19.2 °F 1014.8 in SE 12.9 mph 12.9 mph 64 % 0.0 in 0.0 W/m2 CLR
21:56 26.5 °F 19.1 °F 1014.8 in SSE 12.9 mph 12.9 mph 64 % 0.0 in 0.0 W/m2 CLR
22:01 26.4 °F 19.3 °F 1014.8 in SE 9.3 mph 9.3 mph 65 % 0.0 in 0.0 W/m2 CLR
22:06 26.3 °F 19.2 °F 1014.8 in SSE 14.8 mph 14.8 mph 65 % 0.0 in 0.0 W/m2 CLR
22:11 26.3 °F 19.2 °F 1014.8 in SE 6.4 mph 6.4 mph 65 % 0.0 in 0.0 W/m2 CLR
22:16 26.2 °F 19.1 °F 1015.1 in Calm     65 % 0.0 in 0.0 W/m2 CLR
22:21 26.1 °F 19.3 °F 1015.1 in SSE 11.1 mph 11.1 mph 66 % 0.0 in 0.0 W/m2 CLR
22:26 26.1 °F 19.2 °F 1015.1 in SE 7.4 mph 7.4 mph 66 % 0.0 in 0.0 W/m2 CLR
22:31 26.1 °F 19.2 °F 1015.1 in Calm     66 % 0.0 in 0.0 W/m2 CLR
22:36 26.0 °F 19.2 °F 1015.1 in SSE 7.4 mph   66 % 0.0 in 0.0 W/m2 CLR
22:41 25.9 °F 19.1 °F 1015.5 in Calm     66 % 0.0 in 0.0 W/m2 CLR
22:46 25.9 °F 19.1 °F 1015.5 in Calm     66 % 0.0 in 0.0 W/m2 CLR
22:51 25.9 °F 19.1 °F 1015.1 in SE 5.6 mph   66 % 0.0 in 0.0 W/m2 CLR
22:56 25.9 °F 19.1 °F 1015.5 in SSE 7.4 mph 7.4 mph 66 % 0.0 in 0.0 W/m2 CLR
23:01 25.9 °F 19.1 °F 1015.5 in South 1.9 mph 1.9 mph 66 % 0.0 in 0.0 W/m2 CLR
23:06 25.9 °F 19.1 °F 1015.5 in SE 8.0 mph 8.0 mph 66 % 0.0 in 0.0 W/m2 CLR
23:11 25.8 °F 19.0 °F 1015.1 in Calm     66 % 0.0 in 0.0 W/m2 CLR
23:21 25.7 °F 19.1 °F 1015.1 in Calm     67 % 0.0 in 0.0 W/m2 CLR
23:26 25.6 °F 19.0 °F 1014.8 in SSE 9.3 mph 9.3 mph 67 % 0.0 in 0.0 W/m2 CLR
23:31 25.6 °F 19.0 °F 1015.1 in SSE 9.3 mph 9.3 mph 67 % 0.0 in 0.0 W/m2 CLR
23:36 25.6 °F 19.2 °F 1015.1 in SE 11.1 mph 11.1 mph 68 % 0.0 in 0.0 W/m2 CLR
23:41 25.5 °F 19.2 °F 1015.1 in SE 7.4 mph 7.4 mph 68 % 0.0 in 0.0 W/m2 CLR
23:46 25.5 °F 19.2 °F 1015.1 in Calm     68 % 0.0 in 0.0 W/m2 CLR
23:51 25.5 °F 19.2 °F 1015.1 in Calm     68 % 0.0 in 0.0 W/m2 CLR
23:56 25.5 °F 19.2 °F 1015.1 in SSE 6.4 mph 6.4 mph 68 % 0.0 in 0.0 W/m2 CLR
Lo Temps de Massalio
Compliments of Weather Underground - 1.25 mb